sensor_id;sensor_type;location;lat;lon;timestamp;P1;durP1;ratioP1;P2;durP2;ratioP2
77170;SDS011;66144;50.020;14.422;2023-01-23T00:00:03;25.75;;;13.45;;
77170;SDS011;66144;50.020;14.422;2023-01-23T00:02:31;24.48;;;13.35;;
77170;SDS011;66144;50.020;14.422;2023-01-23T00:04:56;23.73;;;13.02;;
77170;SDS011;66144;50.020;14.422;2023-01-23T00:09:47;25.27;;;13.67;;
77170;SDS011;66144;50.020;14.422;2023-01-23T00:12:12;26.02;;;12.00;;
77170;SDS011;66144;50.020;14.422;2023-01-23T00:14:37;25.15;;;11.85;;
77170;SDS011;66144;50.020;14.422;2023-01-23T00:17:03;27.63;;;12.18;;
77170;SDS011;66144;50.020;14.422;2023-01-23T00:21:53;27.37;;;13.00;;
77170;SDS011;66144;50.020;14.422;2023-01-23T00:24:19;26.02;;;13.10;;
77170;SDS011;66144;50.020;14.422;2023-01-23T00:26:44;31.75;;;12.32;;
77170;SDS011;66144;50.020;14.422;2023-01-23T00:29:09;25.23;;;12.65;;
77170;SDS011;66144;50.020;14.422;2023-01-23T00:31:35;25.50;;;13.35;;
77170;SDS011;66144;50.020;14.422;2023-01-23T00:34:04;23.70;;;10.85;;
77170;SDS011;66144;50.020;14.422;2023-01-23T00:36:35;25.23;;;11.77;;
77170;SDS011;66144;50.020;14.422;2023-01-23T00:39:02;25.60;;;13.20;;
77170;SDS011;66144;50.020;14.422;2023-01-23T00:41:30;23.95;;;12.85;;
77170;SDS011;66144;50.020;14.422;2023-01-23T00:43:56;24.45;;;11.20;;
77170;SDS011;66144;50.020;14.422;2023-01-23T00:48:47;21.33;;;12.07;;
77170;SDS011;66144;50.020;14.422;2023-01-23T00:51:12;23.35;;;11.73;;
77170;SDS011;66144;50.020;14.422;2023-01-23T00:56:03;24.07;;;11.80;;
77170;SDS011;66144;50.020;14.422;2023-01-23T00:58:29;22.60;;;11.15;;
77170;SDS011;66144;50.020;14.422;2023-01-23T01:00:55;24.33;;;12.48;;
77170;SDS011;66144;50.020;14.422;2023-01-23T01:03:20;21.63;;;11.50;;
77170;SDS011;66144;50.020;14.422;2023-01-23T01:05:49;24.23;;;11.98;;
77170;SDS011;66144;50.020;14.422;2023-01-23T01:08:15;26.50;;;12.52;;
77170;SDS011;66144;50.020;14.422;2023-01-23T01:10:40;23.70;;;11.52;;
77170;SDS011;66144;50.020;14.422;2023-01-23T01:13:06;26.35;;;12.55;;
77170;SDS011;66144;50.020;14.422;2023-01-23T01:17:57;26.00;;;12.13;;
77170;SDS011;66144;50.020;14.422;2023-01-23T01:20:24;23.90;;;12.10;;
77170;SDS011;66144;50.020;14.422;2023-01-23T01:22:51;23.63;;;12.55;;
77170;SDS011;66144;50.020;14.422;2023-01-23T01:25:17;24.35;;;11.40;;
77170;SDS011;66144;50.020;14.422;2023-01-23T01:27:43;24.50;;;12.20;;
77170;SDS011;66144;50.020;14.422;2023-01-23T01:30:09;22.85;;;11.98;;
77170;SDS011;66144;50.020;14.422;2023-01-23T01:32:35;26.48;;;12.35;;
77170;SDS011;66144;50.020;14.422;2023-01-23T01:35:02;22.05;;;12.65;;
77170;SDS011;66144;50.020;14.422;2023-01-23T01:37:31;27.35;;;12.88;;
77170;SDS011;66144;50.020;14.422;2023-01-23T01:39:57;24.48;;;11.93;;
77170;SDS011;66144;50.020;14.422;2023-01-23T01:42:23;25.90;;;12.95;;
77170;SDS011;66144;50.020;14.422;2023-01-23T01:44:53;26.52;;;13.00;;
77170;SDS011;66144;50.020;14.422;2023-01-23T01:47:21;27.02;;;12.65;;
77170;SDS011;66144;50.020;14.422;2023-01-23T01:49:47;26.35;;;13.32;;
77170;SDS011;66144;50.020;14.422;2023-01-23T01:52:15;23.95;;;14.13;;
77170;SDS011;66144;50.020;14.422;2023-01-23T01:54:57;26.58;;;13.32;;
77170;SDS011;66144;50.020;14.422;2023-01-23T02:00:09;26.33;;;13.23;;
77170;SDS011;66144;50.020;14.422;2023-01-23T02:02:42;26.55;;;13.77;;
77170;SDS011;66144;50.020;14.422;2023-01-23T02:05:13;25.67;;;12.77;;
77170;SDS011;66144;50.020;14.422;2023-01-23T02:07:53;29.70;;;13.35;;
77170;SDS011;66144;50.020;14.422;2023-01-23T02:10:23;26.40;;;12.27;;
77170;SDS011;66144;50.020;14.422;2023-01-23T02:12:50;23.65;;;10.48;;
77170;SDS011;66144;50.020;14.422;2023-01-23T02:15:16;24.95;;;11.18;;
77170;SDS011;66144;50.020;14.422;2023-01-23T02:17:43;26.27;;;13.55;;
77170;SDS011;66144;50.020;14.422;2023-01-23T02:28:06;27.08;;;13.13;;
77170;SDS011;66144;50.020;14.422;2023-01-23T02:30:34;23.95;;;12.30;;
77170;SDS011;66144;50.020;14.422;2023-01-23T02:33:07;26.85;;;12.10;;
77170;SDS011;66144;50.020;14.422;2023-01-23T02:35:33;23.48;;;12.10;;
77170;SDS011;66144;50.020;14.422;2023-01-23T02:38:01;22.10;;;11.20;;
77170;SDS011;66144;50.020;14.422;2023-01-23T02:40:30;21.17;;;9.50;;
77170;SDS011;66144;50.020;14.422;2023-01-23T02:42:57;24.83;;;12.15;;
77170;SDS011;66144;50.020;14.422;2023-01-23T02:45:24;26.10;;;12.20;;
77170;SDS011;66144;50.020;14.422;2023-01-23T02:50:15;25.73;;;12.02;;
77170;SDS011;66144;50.020;14.422;2023-01-23T02:52:41;25.48;;;12.20;;
77170;SDS011;66144;50.020;14.422;2023-01-23T02:55:07;23.80;;;11.65;;
77170;SDS011;66144;50.020;14.422;2023-01-23T02:57:32;24.05;;;12.55;;
77170;SDS011;66144;50.020;14.422;2023-01-23T02:59:58;24.55;;;13.98;;
77170;SDS011;66144;50.020;14.422;2023-01-23T03:02:50;29.83;;;13.90;;
77170;SDS011;66144;50.020;14.422;2023-01-23T03:05:16;25.63;;;12.27;;
77170;SDS011;66144;50.020;14.422;2023-01-23T03:07:42;22.23;;;12.55;;
77170;SDS011;66144;50.020;14.422;2023-01-23T03:10:08;24.88;;;12.75;;
77170;SDS011;66144;50.020;14.422;2023-01-23T03:12:35;22.02;;;11.40;;
77170;SDS011;66144;50.020;14.422;2023-01-23T03:15:06;22.27;;;11.30;;
77170;SDS011;66144;50.020;14.422;2023-01-23T03:19:57;26.17;;;12.77;;
77170;SDS011;66144;50.020;14.422;2023-01-23T03:22:23;22.58;;;11.85;;
77170;SDS011;66144;50.020;14.422;2023-01-23T03:24:48;24.08;;;12.85;;
77170;SDS011;66144;50.020;14.422;2023-01-23T03:27:14;19.17;;;10.52;;
77170;SDS011;66144;50.020;14.422;2023-01-23T03:29:39;21.45;;;10.82;;
77170;SDS011;66144;50.020;14.422;2023-01-23T03:32:23;22.30;;;12.32;;
77170;SDS011;66144;50.020;14.422;2023-01-23T03:34:50;23.50;;;11.57;;
77170;SDS011;66144;50.020;14.422;2023-01-23T03:37:15;18.73;;;11.05;;
77170;SDS011;66144;50.020;14.422;2023-01-23T03:39:43;22.77;;;11.98;;
77170;SDS011;66144;50.020;14.422;2023-01-23T03:42:28;20.55;;;10.85;;
77170;SDS011;66144;50.020;14.422;2023-01-23T03:44:53;21.88;;;10.75;;
77170;SDS011;66144;50.020;14.422;2023-01-23T03:47:19;21.90;;;11.20;;
77170;SDS011;66144;50.020;14.422;2023-01-23T03:49:44;20.70;;;10.30;;
77170;SDS011;66144;50.020;14.422;2023-01-23T03:54:35;20.57;;;10.40;;
77170;SDS011;66144;50.020;14.422;2023-01-23T03:59:26;22.97;;;11.27;;
77170;SDS011;66144;50.020;14.422;2023-01-23T04:01:52;24.48;;;11.93;;
77170;SDS011;66144;50.020;14.422;2023-01-23T04:04:17;24.60;;;11.73;;
77170;SDS011;66144;50.020;14.422;2023-01-23T04:06:43;22.23;;;12.02;;
77170;SDS011;66144;50.020;14.422;2023-01-23T04:11:34;17.73;;;9.15;;
77170;SDS011;66144;50.020;14.422;2023-01-23T04:13:59;22.83;;;11.05;;
77170;SDS011;66144;50.020;14.422;2023-01-23T04:16:24;20.63;;;11.13;;
77170;SDS011;66144;50.020;14.422;2023-01-23T04:18:52;22.02;;;11.02;;
77170;SDS011;66144;50.020;14.422;2023-01-23T04:21:18;22.48;;;9.80;;
77170;SDS011;66144;50.020;14.422;2023-01-23T04:23:44;22.35;;;11.35;;
77170;SDS011;66144;50.020;14.422;2023-01-23T04:26:10;19.77;;;10.68;;
77170;SDS011;66144;50.020;14.422;2023-01-23T04:31:01;23.40;;;11.83;;
77170;SDS011;66144;50.020;14.422;2023-01-23T04:35:53;19.52;;;10.27;;
77170;SDS011;66144;50.020;14.422;2023-01-23T04:38:22;22.35;;;11.70;;
77170;SDS011;66144;50.020;14.422;2023-01-23T04:40:49;22.05;;;11.85;;
77170;SDS011;66144;50.020;14.422;2023-01-23T04:43:15;21.45;;;10.98;;
77170;SDS011;66144;50.020;14.422;2023-01-23T04:45:40;21.98;;;11.25;;
77170;SDS011;66144;50.020;14.422;2023-01-23T04:48:06;22.38;;;11.88;;
77170;SDS011;66144;50.020;14.422;2023-01-23T04:50:31;21.00;;;10.55;;
77170;SDS011;66144;50.020;14.422;2023-01-23T04:52:57;22.92;;;12.05;;
77170;SDS011;66144;50.020;14.422;2023-01-23T04:55:23;20.95;;;11.40;;
77170;SDS011;66144;50.020;14.422;2023-01-23T04:57:48;19.08;;;11.05;;
77170;SDS011;66144;50.020;14.422;2023-01-23T05:00:14;20.92;;;10.05;;
77170;SDS011;66144;50.020;14.422;2023-01-23T05:02:40;19.88;;;10.50;;
77170;SDS011;66144;50.020;14.422;2023-01-23T05:05:05;19.10;;;10.32;;
77170;SDS011;66144;50.020;14.422;2023-01-23T05:07:31;18.20;;;9.80;;
77170;SDS011;66144;50.020;14.422;2023-01-23T05:09:57;22.10;;;11.52;;
77170;SDS011;66144;50.020;14.422;2023-01-23T05:12:22;18.83;;;10.40;;
77170;SDS011;66144;50.020;14.422;2023-01-23T05:14:47;22.00;;;11.73;;
77170;SDS011;66144;50.020;14.422;2023-01-23T05:17:13;21.65;;;11.10;;
77170;SDS011;66144;50.020;14.422;2023-01-23T05:19:38;20.70;;;10.55;;
77170;SDS011;66144;50.020;14.422;2023-01-23T05:22:03;21.13;;;11.50;;
77170;SDS011;66144;50.020;14.422;2023-01-23T05:24:29;19.85;;;10.55;;
77170;SDS011;66144;50.020;14.422;2023-01-23T05:26:54;18.08;;;10.52;;
77170;SDS011;66144;50.020;14.422;2023-01-23T05:29:21;18.00;;;10.95;;
77170;SDS011;66144;50.020;14.422;2023-01-23T05:31:46;19.45;;;9.20;;
77170;SDS011;66144;50.020;14.422;2023-01-23T05:34:11;16.35;;;9.23;;
77170;SDS011;66144;50.020;14.422;2023-01-23T05:36:37;20.95;;;10.75;;
77170;SDS011;66144;50.020;14.422;2023-01-23T05:39:02;20.73;;;10.90;;
77170;SDS011;66144;50.020;14.422;2023-01-23T05:41:28;19.65;;;10.38;;
77170;SDS011;66144;50.020;14.422;2023-01-23T05:43:53;20.13;;;11.40;;
77170;SDS011;66144;50.020;14.422;2023-01-23T05:46:18;22.77;;;11.48;;
77170;SDS011;66144;50.020;14.422;2023-01-23T05:48:46;22.80;;;10.70;;
77170;SDS011;66144;50.020;14.422;2023-01-23T05:51:13;21.83;;;10.65;;
77170;SDS011;66144;50.020;14.422;2023-01-23T05:53:38;19.85;;;11.02;;
77170;SDS011;66144;50.020;14.422;2023-01-23T05:56:05;21.52;;;11.50;;
77170;SDS011;66144;50.020;14.422;2023-01-23T05:58:31;26.65;;;12.63;;
77170;SDS011;66144;50.020;14.422;2023-01-23T06:00:56;19.15;;;9.98;;
77170;SDS011;66144;50.020;14.422;2023-01-23T06:03:22;20.58;;;10.57;;
77170;SDS011;66144;50.020;14.422;2023-01-23T06:05:47;23.38;;;12.07;;
77170;SDS011;66144;50.020;14.422;2023-01-23T06:08:12;23.00;;;11.50;;
77170;SDS011;66144;50.020;14.422;2023-01-23T06:10:38;20.65;;;10.90;;
77170;SDS011;66144;50.020;14.422;2023-01-23T06:13:03;21.00;;;11.73;;
77170;SDS011;66144;50.020;14.422;2023-01-23T06:15:28;17.55;;;10.43;;
77170;SDS011;66144;50.020;14.422;2023-01-23T06:17:54;22.02;;;11.68;;
77170;SDS011;66144;50.020;14.422;2023-01-23T06:20:19;19.95;;;10.73;;
77170;SDS011;66144;50.020;14.422;2023-01-23T06:22:45;20.63;;;10.90;;
77170;SDS011;66144;50.020;14.422;2023-01-23T06:25:11;23.52;;;10.48;;
77170;SDS011;66144;50.020;14.422;2023-01-23T06:27:36;19.40;;;11.25;;
77170;SDS011;66144;50.020;14.422;2023-01-23T06:30:02;19.63;;;10.20;;
77170;SDS011;66144;50.020;14.422;2023-01-23T06:32:27;19.83;;;10.90;;
77170;SDS011;66144;50.020;14.422;2023-01-23T06:34:53;21.42;;;11.10;;
77170;SDS011;66144;50.020;14.422;2023-01-23T06:37:18;19.30;;;10.43;;
77170;SDS011;66144;50.020;14.422;2023-01-23T06:39:43;19.95;;;10.43;;
77170;SDS011;66144;50.020;14.422;2023-01-23T06:42:09;19.90;;;10.52;;
77170;SDS011;66144;50.020;14.422;2023-01-23T06:44:35;24.42;;;12.32;;
77170;SDS011;66144;50.020;14.422;2023-01-23T06:47:01;19.83;;;11.73;;
77170;SDS011;66144;50.020;14.422;2023-01-23T06:51:52;21.20;;;11.30;;
77170;SDS011;66144;50.020;14.422;2023-01-23T06:54:18;17.33;;;8.85;;
77170;SDS011;66144;50.020;14.422;2023-01-23T06:56:43;19.52;;;9.68;;
77170;SDS011;66144;50.020;14.422;2023-01-23T06:59:08;20.98;;;10.95;;
77170;SDS011;66144;50.020;14.422;2023-01-23T07:01:34;19.92;;;10.50;;
77170;SDS011;66144;50.020;14.422;2023-01-23T07:03:59;20.27;;;11.13;;
77170;SDS011;66144;50.020;14.422;2023-01-23T07:06:25;20.75;;;10.63;;
77170;SDS011;66144;50.020;14.422;2023-01-23T07:08:50;25.55;;;14.18;;
77170;SDS011;66144;50.020;14.422;2023-01-23T07:11:15;21.17;;;11.02;;
77170;SDS011;66144;50.020;14.422;2023-01-23T07:13:41;20.08;;;11.07;;
77170;SDS011;66144;50.020;14.422;2023-01-23T07:16:06;21.48;;;10.73;;
77170;SDS011;66144;50.020;14.422;2023-01-23T07:18:32;22.15;;;10.02;;
77170;SDS011;66144;50.020;14.422;2023-01-23T07:20:57;20.50;;;10.35;;
77170;SDS011;66144;50.020;14.422;2023-01-23T07:23:23;24.00;;;11.75;;
77170;SDS011;66144;50.020;14.422;2023-01-23T07:25:49;20.63;;;11.55;;
77170;SDS011;66144;50.020;14.422;2023-01-23T07:28:14;24.98;;;12.55;;
77170;SDS011;66144;50.020;14.422;2023-01-23T07:30:39;24.23;;;11.60;;
77170;SDS011;66144;50.020;14.422;2023-01-23T07:33:05;23.02;;;11.85;;
77170;SDS011;66144;50.020;14.422;2023-01-23T07:35:31;21.02;;;11.05;;
77170;SDS011;66144;50.020;14.422;2023-01-23T07:37:56;23.73;;;12.32;;
77170;SDS011;66144;50.020;14.422;2023-01-23T07:40:22;22.58;;;12.02;;
77170;SDS011;66144;50.020;14.422;2023-01-23T07:45:13;23.93;;;11.77;;
77170;SDS011;66144;50.020;14.422;2023-01-23T07:47:39;25.35;;;11.68;;
77170;SDS011;66144;50.020;14.422;2023-01-23T07:50:05;22.45;;;12.18;;
77170;SDS011;66144;50.020;14.422;2023-01-23T07:52:32;19.90;;;12.27;;
77170;SDS011;66144;50.020;14.422;2023-01-23T07:54:57;20.33;;;12.07;;
77170;SDS011;66144;50.020;14.422;2023-01-23T07:57:23;25.20;;;13.10;;
77170;SDS011;66144;50.020;14.422;2023-01-23T07:59:48;22.63;;;11.30;;
77170;SDS011;66144;50.020;14.422;2023-01-23T08:02:14;23.00;;;12.55;;
77170;SDS011;66144;50.020;14.422;2023-01-23T08:04:39;23.20;;;12.60;;
77170;SDS011;66144;50.020;14.422;2023-01-23T08:07:05;23.45;;;12.85;;
77170;SDS011;66144;50.020;14.422;2023-01-23T08:09:30;23.75;;;12.98;;
77170;SDS011;66144;50.020;14.422;2023-01-23T08:11:55;21.38;;;12.45;;
77170;SDS011;66144;50.020;14.422;2023-01-23T08:14:21;23.10;;;13.10;;
77170;SDS011;66144;50.020;14.422;2023-01-23T08:16:50;23.73;;;13.00;;
77170;SDS011;66144;50.020;14.422;2023-01-23T08:19:16;24.67;;;14.32;;
77170;SDS011;66144;50.020;14.422;2023-01-23T08:21:42;28.45;;;15.43;;
77170;SDS011;66144;50.020;14.422;2023-01-23T08:24:08;33.00;;;15.30;;
77170;SDS011;66144;50.020;14.422;2023-01-23T08:26:35;28.55;;;15.32;;
77170;SDS011;66144;50.020;14.422;2023-01-23T08:29:01;29.00;;;15.35;;
77170;SDS011;66144;50.020;14.422;2023-01-23T08:31:26;30.67;;;16.67;;
77170;SDS011;66144;50.020;14.422;2023-01-23T08:33:52;28.02;;;14.65;;
77170;SDS011;66144;50.020;14.422;2023-01-23T08:36:17;31.35;;;16.30;;
77170;SDS011;66144;50.020;14.422;2023-01-23T08:38:43;31.10;;;15.88;;
77170;SDS011;66144;50.020;14.422;2023-01-23T08:41:08;30.17;;;14.13;;
77170;SDS011;66144;50.020;14.422;2023-01-23T08:43:35;25.63;;;14.88;;
77170;SDS011;66144;50.020;14.422;2023-01-23T08:46:01;28.45;;;14.55;;
77170;SDS011;66144;50.020;14.422;2023-01-23T08:48:26;25.45;;;12.85;;
77170;SDS011;66144;50.020;14.422;2023-01-23T08:50:57;29.85;;;14.13;;
77170;SDS011;66144;50.020;14.422;2023-01-23T08:53:27;31.23;;;14.77;;
77170;SDS011;66144;50.020;14.422;2023-01-23T08:55:57;28.10;;;14.48;;
77170;SDS011;66144;50.020;14.422;2023-01-23T08:58:24;26.08;;;14.52;;
77170;SDS011;66144;50.020;14.422;2023-01-23T09:00:49;26.23;;;14.52;;
77170;SDS011;66144;50.020;14.422;2023-01-23T09:05:39;28.23;;;13.97;;
77170;SDS011;66144;50.020;14.422;2023-01-23T09:08:05;34.60;;;17.50;;
77170;SDS011;66144;50.020;14.422;2023-01-23T09:10:30;28.83;;;14.20;;
77170;SDS011;66144;50.020;14.422;2023-01-23T09:12:56;30.80;;;14.70;;
77170;SDS011;66144;50.020;14.422;2023-01-23T09:15:22;27.23;;;14.27;;
77170;SDS011;66144;50.020;14.422;2023-01-23T09:20:13;29.20;;;14.43;;
77170;SDS011;66144;50.020;14.422;2023-01-23T09:22:39;25.90;;;12.98;;
77170;SDS011;66144;50.020;14.422;2023-01-23T09:25:05;25.70;;;13.15;;
77170;SDS011;66144;50.020;14.422;2023-01-23T09:27:30;27.65;;;11.88;;
77170;SDS011;66144;50.020;14.422;2023-01-23T09:29:56;22.50;;;13.45;;
77170;SDS011;66144;50.020;14.422;2023-01-23T09:34:46;23.57;;;11.87;;
77170;SDS011;66144;50.020;14.422;2023-01-23T09:37:15;24.67;;;11.48;;
77170;SDS011;66144;50.020;14.422;2023-01-23T09:39:44;25.58;;;12.50;;
77170;SDS011;66144;50.020;14.422;2023-01-23T09:42:16;24.52;;;11.93;;
77170;SDS011;66144;50.020;14.422;2023-01-23T09:44:49;23.55;;;12.55;;
77170;SDS011;66144;50.020;14.422;2023-01-23T09:47:41;26.10;;;13.13;;
77170;SDS011;66144;50.020;14.422;2023-01-23T09:50:17;26.85;;;13.10;;
77170;SDS011;66144;50.020;14.422;2023-01-23T09:52:48;30.33;;;13.88;;
77170;SDS011;66144;50.020;14.422;2023-01-23T09:58:04;21.90;;;11.70;;
77170;SDS011;66144;50.020;14.422;2023-01-23T10:00:35;20.67;;;11.05;;
77170;SDS011;66144;50.020;14.422;2023-01-23T10:03:01;23.10;;;12.43;;
77170;SDS011;66144;50.020;14.422;2023-01-23T10:08:17;19.55;;;10.35;;
77170;SDS011;66144;50.020;14.422;2023-01-23T10:11:22;20.67;;;11.15;;
77170;SDS011;66144;50.020;14.422;2023-01-23T10:26:50;20.25;;;10.88;;
77170;SDS011;66144;50.020;14.422;2023-01-23T10:29:33;17.55;;;9.80;;
77170;SDS011;66144;50.020;14.422;2023-01-23T10:32:03;17.00;;;9.23;;
77170;SDS011;66144;50.020;14.422;2023-01-23T10:34:34;17.85;;;9.45;;
77170;SDS011;66144;50.020;14.422;2023-01-23T10:37:10;19.27;;;9.90;;
77170;SDS011;66144;50.020;14.422;2023-01-23T10:40:01;19.83;;;10.40;;
77170;SDS011;66144;50.020;14.422;2023-01-23T10:42:31;19.80;;;9.90;;
77170;SDS011;66144;50.020;14.422;2023-01-23T10:47:27;18.55;;;10.25;;
77170;SDS011;66144;50.020;14.422;2023-01-23T10:49:58;20.58;;;10.80;;
77170;SDS011;66144;50.020;14.422;2023-01-23T10:55:00;17.15;;;9.25;;
77170;SDS011;66144;50.020;14.422;2023-01-23T11:02:34;15.40;;;8.80;;
77170;SDS011;66144;50.020;14.422;2023-01-23T11:05:03;16.52;;;8.95;;
77170;SDS011;66144;50.020;14.422;2023-01-23T11:07:59;17.92;;;10.25;;
77170;SDS011;66144;50.020;14.422;2023-01-23T11:12:50;17.43;;;8.83;;
77170;SDS011;66144;50.020;14.422;2023-01-23T11:15:22;15.18;;;8.80;;
77170;SDS011;66144;50.020;14.422;2023-01-23T11:17:51;15.48;;;9.18;;
77170;SDS011;66144;50.020;14.422;2023-01-23T11:20:26;17.08;;;9.75;;
77170;SDS011;66144;50.020;14.422;2023-01-23T11:23:18;16.35;;;8.93;;
77170;SDS011;66144;50.020;14.422;2023-01-23T11:25:47;14.82;;;8.82;;
77170;SDS011;66144;50.020;14.422;2023-01-23T11:28:27;17.20;;;10.10;;
77170;SDS011;66144;50.020;14.422;2023-01-23T11:38:44;15.38;;;8.88;;
77170;SDS011;66144;50.020;14.422;2023-01-23T11:41:14;17.38;;;10.23;;
77170;SDS011;66144;50.020;14.422;2023-01-23T11:48:59;17.40;;;9.35;;
77170;SDS011;66144;50.020;14.422;2023-01-23T11:51:53;18.17;;;10.23;;
77170;SDS011;66144;50.020;14.422;2023-01-23T12:16:22;16.70;;;9.20;;
77170;SDS011;66144;50.020;14.422;2023-01-23T12:19:04;16.45;;;8.98;;
77170;SDS011;66144;50.020;14.422;2023-01-23T12:21:43;17.73;;;9.82;;
77170;SDS011;66144;50.020;14.422;2023-01-23T12:40:49;17.73;;;10.77;;
77170;SDS011;66144;50.020;14.422;2023-01-23T12:43:30;20.50;;;11.32;;
77170;SDS011;66144;50.020;14.422;2023-01-23T12:46:02;21.23;;;12.02;;
77170;SDS011;66144;50.020;14.422;2023-01-23T12:48:43;22.10;;;14.07;;
77170;SDS011;66144;50.020;14.422;2023-01-23T12:51:15;21.63;;;12.00;;
77170;SDS011;66144;50.020;14.422;2023-01-23T12:53:50;19.95;;;11.77;;
77170;SDS011;66144;50.020;14.422;2023-01-23T12:56:30;20.08;;;12.65;;
77170;SDS011;66144;50.020;14.422;2023-01-23T12:59:20;18.02;;;10.00;;
77170;SDS011;66144;50.020;14.422;2023-01-23T13:02:03;20.35;;;10.85;;
77170;SDS011;66144;50.020;14.422;2023-01-23T13:16:55;20.50;;;10.82;;
77170;SDS011;66144;50.020;14.422;2023-01-23T13:19:23;19.75;;;10.77;;
77170;SDS011;66144;50.020;14.422;2023-01-23T13:22:12;23.00;;;12.07;;
77170;SDS011;66144;50.020;14.422;2023-01-23T13:32:50;23.13;;;11.25;;
77170;SDS011;66144;50.020;14.422;2023-01-23T13:41:32;19.58;;;11.13;;
77170;SDS011;66144;50.020;14.422;2023-01-23T13:52:25;20.73;;;12.18;;
77170;SDS011;66144;50.020;14.422;2023-01-23T13:55:20;19.02;;;11.25;;
77170;SDS011;66144;50.020;14.422;2023-01-23T13:58:11;21.67;;;10.25;;
77170;SDS011;66144;50.020;14.422;2023-01-23T14:00:40;20.58;;;11.38;;
77170;SDS011;66144;50.020;14.422;2023-01-23T14:03:31;20.88;;;11.57;;
77170;SDS011;66144;50.020;14.422;2023-01-23T14:06:16;23.73;;;12.75;;
77170;SDS011;66144;50.020;14.422;2023-01-23T14:11:30;22.75;;;13.13;;
77170;SDS011;66144;50.020;14.422;2023-01-23T14:14:02;22.40;;;12.90;;
77170;SDS011;66144;50.020;14.422;2023-01-23T14:16:48;20.35;;;11.63;;
77170;SDS011;66144;50.020;14.422;2023-01-23T14:21:51;24.13;;;16.00;;
77170;SDS011;66144;50.020;14.422;2023-01-23T14:24:25;26.30;;;13.68;;
77170;SDS011;66144;50.020;14.422;2023-01-23T14:26:58;20.83;;;12.10;;
77170;SDS011;66144;50.020;14.422;2023-01-23T14:29:26;24.13;;;14.63;;
77170;SDS011;66144;50.020;14.422;2023-01-23T14:31:52;23.70;;;13.82;;
77170;SDS011;66144;50.020;14.422;2023-01-23T14:36:45;20.25;;;12.80;;
77170;SDS011;66144;50.020;14.422;2023-01-23T14:39:15;19.13;;;11.50;;
77170;SDS011;66144;50.020;14.422;2023-01-23T14:41:43;20.00;;;11.95;;
77170;SDS011;66144;50.020;14.422;2023-01-23T14:46:50;21.52;;;12.77;;
77170;SDS011;66144;50.020;14.422;2023-01-23T14:49:31;23.88;;;12.98;;
77170;SDS011;66144;50.020;14.422;2023-01-23T14:52:03;22.55;;;13.27;;
77170;SDS011;66144;50.020;14.422;2023-01-23T14:54:31;23.00;;;12.65;;
77170;SDS011;66144;50.020;14.422;2023-01-23T14:56:58;22.95;;;11.98;;
77170;SDS011;66144;50.020;14.422;2023-01-23T14:59:27;22.10;;;13.05;;
77170;SDS011;66144;50.020;14.422;2023-01-23T15:01:57;21.05;;;12.93;;
77170;SDS011;66144;50.020;14.422;2023-01-23T15:04:24;20.90;;;11.80;;
77170;SDS011;66144;50.020;14.422;2023-01-23T15:06:55;20.73;;;13.18;;
77170;SDS011;66144;50.020;14.422;2023-01-23T15:09:33;24.38;;;13.45;;
77170;SDS011;66144;50.020;14.422;2023-01-23T15:12:06;19.08;;;11.98;;
77170;SDS011;66144;50.020;14.422;2023-01-23T15:14:36;20.45;;;11.55;;
77170;SDS011;66144;50.020;14.422;2023-01-23T15:17:04;23.90;;;12.45;;
77170;SDS011;66144;50.020;14.422;2023-01-23T15:19:36;25.02;;;16.40;;
77170;SDS011;66144;50.020;14.422;2023-01-23T15:22:06;20.08;;;13.32;;
77170;SDS011;66144;50.020;14.422;2023-01-23T15:24:42;21.02;;;12.77;;
77170;SDS011;66144;50.020;14.422;2023-01-23T15:30:26;23.65;;;13.68;;
77170;SDS011;66144;50.020;14.422;2023-01-23T15:32:54;21.35;;;12.50;;
77170;SDS011;66144;50.020;14.422;2023-01-23T15:35:20;24.52;;;13.75;;
77170;SDS011;66144;50.020;14.422;2023-01-23T15:40:14;18.98;;;11.50;;
77170;SDS011;66144;50.020;14.422;2023-01-23T15:42:40;22.15;;;11.75;;
77170;SDS011;66144;50.020;14.422;2023-01-23T15:47:37;27.45;;;13.93;;
77170;SDS011;66144;50.020;14.422;2023-01-23T15:52:29;22.45;;;11.93;;
77170;SDS011;66144;50.020;14.422;2023-01-23T15:55:08;21.92;;;11.63;;
77170;SDS011;66144;50.020;14.422;2023-01-23T15:59:59;22.63;;;12.57;;
77170;SDS011;66144;50.020;14.422;2023-01-23T16:04:50;20.37;;;11.27;;
77170;SDS011;66144;50.020;14.422;2023-01-23T16:09:58;17.42;;;10.23;;
77170;SDS011;66144;50.020;14.422;2023-01-23T16:14:51;23.67;;;13.02;;
77170;SDS011;66144;50.020;14.422;2023-01-23T16:17:17;20.45;;;12.25;;
77170;SDS011;66144;50.020;14.422;2023-01-23T16:19:42;20.63;;;11.88;;
77170;SDS011;66144;50.020;14.422;2023-01-23T16:22:12;24.08;;;12.93;;
77170;SDS011;66144;50.020;14.422;2023-01-23T16:24:41;24.63;;;12.60;;
77170;SDS011;66144;50.020;14.422;2023-01-23T16:29:39;19.08;;;10.55;;
77170;SDS011;66144;50.020;14.422;2023-01-23T16:32:07;24.58;;;12.43;;
77170;SDS011;66144;50.020;14.422;2023-01-23T16:36:58;20.97;;;10.60;;
77170;SDS011;66144;50.020;14.422;2023-01-23T16:39:25;19.45;;;11.68;;
77170;SDS011;66144;50.020;14.422;2023-01-23T16:41:53;22.45;;;12.52;;
77170;SDS011;66144;50.020;14.422;2023-01-23T16:46:47;19.38;;;11.48;;
77170;SDS011;66144;50.020;14.422;2023-01-23T16:49:14;18.85;;;12.05;;
77170;SDS011;66144;50.020;14.422;2023-01-23T16:54:15;24.15;;;13.13;;
77170;SDS011;66144;50.020;14.422;2023-01-23T16:56:45;21.77;;;12.38;;
77170;SDS011;66144;50.020;14.422;2023-01-23T16:59:15;21.15;;;11.43;;
77170;SDS011;66144;50.020;14.422;2023-01-23T17:01:44;20.65;;;10.88;;
77170;SDS011;66144;50.020;14.422;2023-01-23T17:04:15;22.90;;;12.15;;
77170;SDS011;66144;50.020;14.422;2023-01-23T17:06:43;18.95;;;11.38;;
77170;SDS011;66144;50.020;14.422;2023-01-23T17:11:36;21.48;;;11.50;;
77170;SDS011;66144;50.020;14.422;2023-01-23T17:14:18;23.40;;;12.25;;
77170;SDS011;66144;50.020;14.422;2023-01-23T17:16:46;18.67;;;11.65;;
77170;SDS011;66144;50.020;14.422;2023-01-23T17:19:16;21.63;;;11.95;;
77170;SDS011;66144;50.020;14.422;2023-01-23T17:21:53;22.17;;;12.25;;
77170;SDS011;66144;50.020;14.422;2023-01-23T17:26:44;19.52;;;10.35;;
77170;SDS011;66144;50.020;14.422;2023-01-23T17:31:35;21.97;;;11.27;;
77170;SDS011;66144;50.020;14.422;2023-01-23T17:34:02;21.17;;;10.88;;
77170;SDS011;66144;50.020;14.422;2023-01-23T17:38:54;22.37;;;11.23;;
77170;SDS011;66144;50.020;14.422;2023-01-23T17:41:21;23.05;;;11.38;;
77170;SDS011;66144;50.020;14.422;2023-01-23T17:46:26;21.95;;;11.43;;
77170;SDS011;66144;50.020;14.422;2023-01-23T17:48:53;21.05;;;11.65;;
77170;SDS011;66144;50.020;14.422;2023-01-23T17:51:20;21.05;;;10.35;;
77170;SDS011;66144;50.020;14.422;2023-01-23T17:53:47;23.92;;;12.77;;
77170;SDS011;66144;50.020;14.422;2023-01-23T17:58:39;21.52;;;11.35;;
77170;SDS011;66144;50.020;14.422;2023-01-23T18:03:35;22.35;;;12.55;;
77170;SDS011;66144;50.020;14.422;2023-01-23T18:08:26;21.83;;;12.07;;